Big Fork, Kentucky
Current Conditions -  °F | °C
As of 7:55 AM on Saturday 25 Oct 2014 (Local Time) from KI35 Reporting Station
Overcast Overcast  
Wind Chill: 37°   Ceiling: 100
Heat Index: 37°   Visibility: 0mi
Dew Point: 37°   Wind: 0mph
Humidity: 100%   Direction: NA
Pressure: 30.11"   Gusts: NA
Location:  37.0427°N, 83.2166°W
Report Text: KI35 251155Z AUTO 00000KT M1/4SM OVC001 03/03 A3011 RMK AO1
Loading
Personal Weather Stations






























Interactive Weather Map
Tropical Storm Tracking
New forecast layout! Learn more

10-Day Weather Forecast

Advertisements
Track Severe Weather on mobile